Time;durP1;ratioP1;P1;durP2;ratioP2;P2;SDS_P1;SDS_P2;PMS_P1;PMS_P2;Temp;Humidity;BMP_temperature;BMP_pressure;BME280_temperature;BME280_humidity;BME280_pressure;Samples;Min_cycle;Max_cycle;Signal;HPM_P1;HPM_P2
2023/12/22 00:01:53;;;;;;;4.82;1.80;;;8.00;1.00;;;;;;7380527;19;20078;-69
2023/12/22 00:04:23;;;;;;;4.22;1.40;;;8.10;1.00;;;;;;7379571;19;20093;-69
2023/12/22 00:06:55;;;;;;;3.78;1.60;;;8.30;1.00;;;;;;7378500;19;20019;-70
2023/12/22 00:09:25;;;;;;;5.32;1.52;;;8.20;1.00;;;;;;7378997;19;20515;-70
2023/12/22 00:11:55;;;;;;;4.13;1.45;;;8.20;1.00;;;;;;7379990;19;20498;-70
2023/12/22 00:14:25;;;;;;;3.30;1.15;;;8.20;1.00;;;;;;7379666;19;20046;-69
2023/12/22 00:16:55;;;;;;;6.85;1.77;;;8.20;1.00;;;;;;7380882;19;20526;-70
2023/12/22 00:19:25;;;;;;;3.70;1.20;;;8.10;1.00;;;;;;7377716;19;20437;-70
2023/12/22 00:21:58;;;;;;;5.32;1.58;;;8.10;1.00;;;;;;7379189;19;20014;-70
2023/12/22 00:24:29;;;;;;;3.42;1.20;;;8.10;1.00;;;;;;7374509;19;20011;-70
2023/12/22 00:26:59;;;;;;;4.85;1.38;;;8.10;1.00;;;;;;7378885;19;20600;-71
2023/12/22 00:29:29;;;;;;;8.18;1.90;;;8.20;1.00;;;;;;7373976;19;20021;-69
2023/12/22 00:31:59;;;;;;;3.13;1.40;;;8.10;1.00;;;;;;7379106;19;20439;-70
2023/12/22 00:34:29;;;;;;;6.97;1.95;;;7.80;33.90;;;;;;7378825;19;20684;-70
2023/12/22 00:37:04;;;;;;;4.35;1.40;;;7.70;55.00;;;;;;7379749;19;20078;-71
2023/12/22 00:39:34;;;;;;;5.10;1.33;;;7.90;4.70;;;;;;7375913;19;20006;-71
2023/12/22 00:42:04;;;;;;;2.00;1.10;;;7.80;11.50;;;;;;7379008;19;20073;-72
2023/12/22 00:44:34;;;;;;;3.00;1.20;;;6.80;23.10;;;;;;7378340;19;20006;-69
2023/12/22 00:47:04;;;;;;;3.00;1.42;;;6.30;37.00;;;;;;7377229;19;20010;-69
2023/12/22 00:49:34;;;;;;;3.65;1.73;;;6.20;79.90;;;;;;7376967;19;20014;-71
2023/12/22 00:52:08;;;;;;;3.00;1.40;;;6.00;99.00;;;;;;7374572;19;20043;-70
2023/12/22 00:54:38;;;;;;;2.08;1.67;;;5.90;99.90;;;;;;7380018;19;20022;-70
2023/12/22 00:57:08;;;;;;;2.97;1.75;;;5.80;99.90;;;;;;7381268;19;20016;-70
2023/12/22 00:59:38;;;;;;;5.57;1.95;;;5.80;99.90;;;;;;7376622;19;20022;-70
2023/12/22 01:02:08;;;;;;;5.93;1.83;;;5.80;99.90;;;;;;7377022;19;20022;-70
2023/12/22 01:04:38;;;;;;;2.08;1.52;;;5.80;99.90;;;;;;7376094;19;20028;-71
2023/12/22 01:07:14;;;;;;;3.35;1.70;;;5.80;99.90;;;;;;7376071;19;20019;-70
2023/12/22 01:09:45;;;;;;;2.83;1.55;;;5.90;99.90;;;;;;7377362;19;20021;-69
2023/12/22 01:12:15;;;;;;;4.78;1.67;;;6.30;99.90;;;;;;7377193;19;20014;-70
2023/12/22 01:14:45;;;;;;;3.53;1.38;;;6.50;69.30;;;;;;7375189;19;20040;-70
2023/12/22 01:17:15;;;;;;;3.67;1.50;;;6.70;39.20;;;;;;7376628;19;20028;-70
2023/12/22 01:19:45;;;;;;;4.55;2.08;;;6.70;37.20;;;;;;7375902;19;20018;-70
2023/12/22 01:22:18;;;;;;;4.28;1.50;;;7.10;4.40;;;;;;7377778;19;20006;-70
2023/12/22 01:24:48;;;;;;;4.38;1.67;;;7.20;11.50;;;;;;7377531;19;20042;-69
2023/12/22 01:27:19;;;;;;;4.70;1.88;;;7.20;16.40;;;;;;7375570;19;20014;-71
2023/12/22 01:29:49;;;;;;;6.10;2.45;;;7.20;23.40;;;;;;7375456;19;20105;-71
2023/12/22 01:32:19;;;;;;;3.80;1.70;;;7.30;28.70;;;;;;7374910;19;20009;-70
2023/12/22 01:34:49;;;;;;;5.03;2.30;;;7.40;29.00;;;;;;7372103;19;20011;-68
2023/12/22 01:37:23;;;;;;;5.85;2.03;;;7.40;34.10;;;;;;7375137;19;20387;-68
2023/12/22 01:39:54;;;;;;;7.10;2.00;;;7.40;33.90;;;;;;7374817;19;20023;-70
2023/12/22 01:42:24;;;;;;;5.43;2.25;;;7.50;34.20;;;;;;7375865;19;20243;-70
2023/12/22 01:44:54;;;;;;;7.25;2.35;;;7.50;39.20;;;;;;7374519;19;20068;-69
2023/12/22 01:47:24;;;;;;;9.23;2.22;;;7.50;27.70;;;;;;7375229;19;20011;-70
2023/12/22 01:49:55;;;;;;;4.20;1.73;;;7.50;25.10;;;;;;7377038;19;22911;-69
2023/12/22 01:52:28;;;;;;;8.90;1.83;;;7.50;15.20;;;;;;7375835;19;20026;-69
2023/12/22 01:54:58;;;;;;;6.05;2.13;;;7.60;2.60;;;;;;7375339;19;20035;-70
2023/12/22 01:57:29;;;;;;;7.90;1.80;;;7.50;1.40;;;;;;7374982;19;20044;-69
2023/12/22 01:59:59;;;;;;;9.93;1.65;;;7.60;1.00;;;;;;7375492;19;20025;-70
2023/12/22 02:02:30;;;;;;;3.13;1.60;;;7.60;1.00;;;;;;7378954;19;20082;-69
2023/12/22 02:05:00;;;;;;;7.70;1.60;;;7.80;1.00;;;;;;7383775;19;20007;-70
2023/12/22 02:07:34;;;;;;;6.30;1.45;;;7.70;1.00;;;;;;7381870;19;20118;-70
2023/12/22 02:10:04;;;;;;;4.88;1.48;;;7.80;1.00;;;;;;7383890;19;20418;-69
2023/12/22 02:12:34;;;;;;;3.50;1.23;;;7.80;1.00;;;;;;7383277;19;20355;-69
2023/12/22 02:15:05;;;;;;;4.97;1.02;;;7.80;1.00;;;;;;7382469;19;20021;-70
2023/12/22 02:17:45;;;;;;;4.80;1.13;;;7.90;1.00;;;;;;7383072;19;20007;-70
2023/12/22 02:20:17;;;;;;;4.75;1.05;;;7.70;1.00;;;;;;7377846;19;20079;-70
2023/12/22 02:22:53;;;;;;;3.83;1.00;;;7.70;1.00;;;;;;7382578;19;20015;-70
2023/12/22 02:25:23;;;;;;;4.20;1.05;;;7.70;1.00;;;;;;7382707;19;20382;-70
2023/12/22 02:28:00;;;;;;;4.55;1.08;;;7.80;1.00;;;;;;7380683;19;20035;-70
2023/12/22 02:30:36;;;;;;;3.50;0.90;;;7.70;1.00;;;;;;7381480;19;20006;-70
2023/12/22 02:33:09;;;;;;;5.30;0.85;;;7.70;1.00;;;;;;7378817;19;20584;-70
2023/12/22 02:35:43;;;;;;;3.05;0.70;;;7.70;1.00;;;;;;7380957;19;20091;-69
2023/12/22 02:38:16;;;;;;;2.75;0.90;;;7.60;1.00;;;;;;7381266;19;20014;-70
2023/12/22 02:40:47;;;;;;;2.78;0.70;;;7.60;1.00;;;;;;7381376;19;20409;-69
2023/12/22 02:43:17;;;;;;;2.10;0.80;;;7.60;1.00;;;;;;7381550;19;20014;-70
2023/12/22 02:45:47;;;;;;;2.30;0.80;;;7.50;1.00;;;;;;7381117;19;20025;-69
2023/12/22 02:48:17;;;;;;;3.55;1.20;;;7.50;1.00;;;;;;7381800;19;20360;-70
2023/12/22 02:50:47;;;;;;;3.88;1.40;;;7.50;1.00;;;;;;7382517;19;20053;-71
2023/12/22 02:53:20;;;;;;;2.92;1.00;;;7.50;1.00;;;;;;7380724;19;20010;-70
2023/12/22 02:55:50;;;;;;;6.35;1.00;;;7.50;1.00;;;;;;7381367;19;20073;-70
2023/12/22 02:58:20;;;;;;;3.67;1.23;;;7.50;1.00;;;;;;7380393;19;20522;-69
2023/12/22 03:00:50;;;;;;;3.55;1.38;;;7.50;1.00;;;;;;7382500;19;20003;-70
2023/12/22 03:03:20;;;;;;;5.47;1.42;;;7.50;1.00;;;;;;7380558;19;20110;-69
2023/12/22 03:05:50;;;;;;;4.32;1.70;;;7.50;1.00;;;;;;7379751;19;20015;-70
2023/12/22 03:08:23;;;;;;;5.75;1.00;;;7.50;1.00;;;;;;7380167;19;20029;-70
2023/12/22 03:10:53;;;;;;;4.40;1.70;;;7.50;1.00;;;;;;7378789;19;20006;-70
2023/12/22 03:13:23;;;;;;;4.28;1.45;;;7.60;1.00;;;;;;7378562;19;20014;-70
2023/12/22 03:15:53;;;;;;;4.03;1.30;;;7.60;1.00;;;;;;7380499;19;20010;-69
2023/12/22 03:18:23;;;;;;;3.42;1.08;;;7.60;1.00;;;;;;7379389;19;20014;-70
2023/12/22 03:20:53;;;;;;;6.70;1.98;;;7.60;1.00;;;;;;7380070;19;20022;-70
2023/12/22 03:23:26;;;;;;;5.30;1.35;;;7.60;1.00;;;;;;7379312;19;20032;-70
2023/12/22 03:25:55;;;;;;;8.93;1.40;;;7.60;1.00;;;;;;7379587;19;20049;-69
2023/12/22 03:28:26;;;;;;;5.45;1.42;;;7.60;1.00;;;;;;7381397;19;20020;-70
2023/12/22 03:30:55;;;;;;;5.47;1.50;;;7.60;1.00;;;;;;7382342;19;20357;-70
2023/12/22 03:33:25;;;;;;;4.40;1.40;;;7.70;1.00;;;;;;7380046;19;20018;-71
2023/12/22 03:35:55;;;;;;;4.40;1.23;;;7.70;1.00;;;;;;7378455;19;20041;-69
2023/12/22 03:38:28;;;;;;;3.67;1.27;;;7.70;1.00;;;;;;7379751;19;20468;-70
2023/12/22 03:40:58;;;;;;;7.00;1.38;;;7.70;1.00;;;;;;7379454;19;20027;-70
2023/12/22 03:43:29;;;;;;;9.02;1.67;;;7.80;1.00;;;;;;7379462;19;20032;-70
2023/12/22 03:45:59;;;;;;;5.43;1.40;;;7.70;1.00;;;;;;7379798;19;20033;-70
2023/12/22 03:48:29;;;;;;;5.40;1.30;;;7.80;1.00;;;;;;7378531;19;20021;-70
2023/12/22 03:50:59;;;;;;;4.10;1.65;;;7.80;1.00;;;;;;7378435;19;20023;-70
2023/12/22 03:53:32;;;;;;;3.03;1.10;;;7.80;1.00;;;;;;7379458;19;20176;-69
2023/12/22 03:56:02;;;;;;;5.15;1.20;;;7.90;1.00;;;;;;7378285;19;20010;-70
2023/12/22 03:58:32;;;;;;;3.85;1.30;;;7.80;1.00;;;;;;7378029;19;20015;-71
2023/12/22 04:01:02;;;;;;;4.50;1.40;;;7.80;1.00;;;;;;7372756;19;20022;-70
2023/12/22 04:03:32;;;;;;;3.22;0.88;;;7.80;1.00;;;;;;7377423;19;20855;-70
2023/12/22 04:06:04;;;;;;;6.28;1.20;;;7.40;1.00;;;;;;7375391;19;20418;-70
2023/12/22 04:08:37;;;;;;;4.68;1.48;;;7.00;1.00;;;;;;7378511;19;20014;-71
2023/12/22 04:11:07;;;;;;;5.55;1.38;;;6.80;1.00;;;;;;7379812;19;20017;-70
2023/12/22 04:13:37;;;;;;;3.08;0.95;;;6.60;13.00;;;;;;7379032;19;20073;-71
2023/12/22 04:16:08;;;;;;;3.38;0.95;;;6.40;1.00;;;;;;7379128;19;20031;-68
2023/12/22 04:18:38;;;;;;;5.82;1.27;;;6.20;5.70;;;;;;7379492;19;20066;-71
2023/12/22 04:21:08;;;;;;;2.15;1.00;;;6.20;26.00;;;;;;7378760;19;20014;-71
2023/12/22 04:23:40;;;;;;;9.75;2.03;;;6.20;63.20;;;;;;7379558;19;20010;-70
2023/12/22 04:26:10;;;;;;;5.65;1.73;;;6.20;90.30;;;;;;7375747;19;20017;-71
2023/12/22 04:28:40;;;;;;;9.25;2.40;;;6.30;99.90;;;;;;7379252;19;20489;-70
2023/12/22 04:31:10;;;;;;;7.88;1.80;;;6.40;99.90;;;;;;7373675;19;20002;-70
2023/12/22 04:33:40;;;;;;;6.45;2.20;;;6.50;88.20;;;;;;7379630;19;20086;-71
2023/12/22 04:36:11;;;;;;;4.63;1.83;;;6.60;55.60;;;;;;7379549;19;20386;-70
2023/12/22 04:38:43;;;;;;;7.30;2.00;;;6.80;12.40;;;;;;7375280;19;20027;-72
2023/12/22 04:41:13;;;;;;;6.05;1.77;;;6.90;2.80;;;;;;7377237;19;20003;-71
2023/12/22 04:43:43;;;;;;;6.63;1.90;;;7.00;1.00;;;;;;7377358;19;20010;-71
2023/12/22 04:46:13;;;;;;;7.78;2.17;;;7.00;1.00;;;;;;7376569;19;20097;-72
2023/12/22 04:48:43;;;;;;;5.18;1.70;;;7.10;1.00;;;;;;7376944;19;20007;-72
2023/12/22 04:51:13;;;;;;;9.20;1.80;;;7.10;1.00;;;;;;7377414;19;20354;-72
2023/12/22 04:53:46;;;;;;;4.25;1.38;;;7.10;1.00;;;;;;7378268;19;20010;-72
2023/12/22 04:56:16;;;;;;;9.27;2.10;;;7.10;1.00;;;;;;7377284;19;20018;-70
2023/12/22 04:58:46;;;;;;;4.45;1.35;;;7.20;1.00;;;;;;7377356;19;20027;-70
2023/12/22 05:01:17;;;;;;;6.57;1.70;;;7.20;1.00;;;;;;7377124;19;20015;-69
2023/12/22 05:03:47;;;;;;;5.35;1.73;;;7.30;1.00;;;;;;7377501;19;20368;-70
2023/12/22 05:06:17;;;;;;;7.95;2.35;;;7.20;1.00;;;;;;7376930;19;20007;-70
2023/12/22 05:08:50;;;;;;;6.28;1.80;;;7.20;1.00;;;;;;7374982;19;20015;-70
2023/12/22 05:11:20;;;;;;;9.63;2.03;;;7.20;1.00;;;;;;7377072;19;20073;-70
2023/12/22 05:13:50;;;;;;;5.85;1.55;;;7.30;1.00;;;;;;7377395;19;20032;-70
2023/12/22 05:16:21;;;;;;;7.47;1.75;;;7.30;1.00;;;;;;7377187;19;20014;-70
2023/12/22 05:18:51;;;;;;;5.88;1.75;;;7.30;1.00;;;;;;7376266;19;20086;-69
2023/12/22 05:21:21;;;;;;;6.03;2.15;;;7.30;1.00;;;;;;7374900;19;20006;-70
2023/12/22 05:23:54;;;;;;;8.02;2.00;;;7.40;1.00;;;;;;7376572;19;20018;-70
2023/12/22 05:26:25;;;;;;;8.68;2.33;;;7.30;1.00;;;;;;7375309;19;20015;-70
2023/12/22 05:28:55;;;;;;;7.20;2.08;;;7.40;1.00;;;;;;7374639;19;20015;-71
2023/12/22 05:31:25;;;;;;;9.50;2.03;;;7.30;1.00;;;;;;7377418;19;20061;-71
2023/12/22 05:33:55;;;;;;;7.00;2.03;;;7.30;1.00;;;;;;7375395;19;20057;-70
2023/12/22 05:36:25;;;;;;;7.60;2.10;;;7.30;1.00;;;;;;7377436;19;20015;-71
2023/12/22 05:38:58;;;;;;;9.98;2.50;;;7.40;1.00;;;;;;7382916;19;20021;-70
2023/12/22 05:41:28;;;;;;;9.57;2.17;;;7.30;1.00;;;;;;7384360;19;20007;-70
2023/12/22 05:43:58;;;;;;;6.53;2.78;;;7.40;1.00;;;;;;7384731;19;20022;-69
2023/12/22 05:46:28;;;;;;;8.52;2.47;;;7.30;1.00;;;;;;7382165;19;20015;-70
2023/12/22 05:49:00;;;;;;;11.15;2.78;;;7.40;1.00;;;;;;7382268;19;20018;-69
2023/12/22 05:51:30;;;;;;;11.55;2.58;;;7.40;1.00;;;;;;7383562;19;20074;-70
2023/12/22 05:54:03;;;;;;;8.20;2.88;;;7.30;1.00;;;;;;7383111;19;20015;-70
2023/12/22 05:56:33;;;;;;;13.40;2.75;;;7.50;1.00;;;;;;7382423;19;20006;-69
2023/12/22 05:59:03;;;;;;;8.45;2.70;;;7.60;1.00;;;;;;7382422;19;20021;-69
2023/12/22 06:01:33;;;;;;;11.55;2.83;;;7.60;1.00;;;;;;7383601;19;20711;-70
2023/12/22 06:04:03;;;;;;;10.85;2.33;;;7.70;1.00;;;;;;7385374;19;20027;-70
2023/12/22 06:06:33;;;;;;;8.40;2.47;;;7.60;1.00;;;;;;7381072;19;20020;-70
2023/12/22 06:09:06;;;;;;;6.85;2.47;;;7.80;1.00;;;;;;7379815;19;20142;-69
2023/12/22 06:11:36;;;;;;;12.15;2.20;;;7.90;1.00;;;;;;7383724;19;20574;-70
2023/12/22 06:14:06;;;;;;;8.93;2.30;;;7.80;1.00;;;;;;7380777;19;20007;-68
2023/12/22 06:16:36;;;;;;;9.35;2.67;;;7.80;1.00;;;;;;7381918;19;20348;-69
2023/12/22 06:19:06;;;;;;;6.93;2.42;;;7.90;1.00;;;;;;7380996;19;20062;-68
2023/12/22 06:21:40;;;;;;;9.93;2.25;;;7.90;1.00;;;;;;7381436;19;20462;-69
2023/12/22 06:24:13;;;;;;;6.95;2.45;;;7.90;1.00;;;;;;7383651;19;20010;-68
2023/12/22 06:26:43;;;;;;;6.55;2.15;;;7.80;1.00;;;;;;7382828;19;20458;-69
2023/12/22 06:29:14;;;;;;;10.10;2.58;;;7.70;1.00;;;;;;7382293;19;20119;-70
2023/12/22 06:31:44;;;;;;;7.25;2.50;;;7.60;1.00;;;;;;7382345;19;20046;-70
2023/12/22 06:34:14;;;;;;;7.30;2.25;;;7.70;1.00;;;;;;7382204;19;20011;-70
2023/12/22 06:36:44;;;;;;;8.68;2.08;;;7.70;1.00;;;;;;7382184;19;20078;-70
2023/12/22 06:39:17;;;;;;;10.95;2.65;;;7.70;1.00;;;;;;7378076;19;20025;-69
2023/12/22 06:41:47;;;;;;;8.05;2.20;;;7.80;1.00;;;;;;7377946;19;20355;-70
2023/12/22 06:44:17;;;;;;;9.85;2.42;;;7.70;1.00;;;;;;7382176;19;20018;-70
2023/12/22 06:46:47;;;;;;;10.85;2.65;;;7.80;1.00;;;;;;7379866;19;20015;-70
2023/12/22 06:49:17;;;;;;;9.80;2.50;;;7.70;1.00;;;;;;7377223;19;20094;-70
2023/12/22 06:51:47;;;;;;;12.52;2.15;;;7.80;1.00;;;;;;7383389;19;20034;-67
2023/12/22 06:54:20;;;;;;;11.52;2.70;;;7.80;1.00;;;;;;7382952;19;20074;-69
2023/12/22 06:56:50;;;;;;;7.75;2.35;;;7.90;1.00;;;;;;7377904;19;20014;-69
2023/12/22 06:59:20;;;;;;;7.97;2.10;;;7.90;1.00;;;;;;7380468;19;20006;-69
2023/12/22 07:01:52;;;;;;;5.03;1.90;;;7.80;1.00;;;;;;7382630;19;20021;-69
2023/12/22 07:04:39;;;;;;;8.07;2.13;;;7.90;1.00;;;;;;6870509;19;2004620;-69
2023/12/22 07:07:09;;;;;;;6.75;2.60;;;7.90;1.00;;;;;;7378870;19;20017;-69
2023/12/22 07:09:42;;;;;;;9.98;2.40;;;7.90;1.00;;;;;;7380392;19;20328;-69
2023/12/22 07:12:12;;;;;;;9.55;2.40;;;7.90;1.00;;;;;;7380661;19;20387;-70
2023/12/22 07:14:42;;;;;;;7.55;2.00;;;7.90;1.00;;;;;;7380145;19;20157;-70
2023/12/22 07:17:12;;;;;;;6.82;2.42;;;7.90;1.00;;;;;;7378276;19;20067;-69
2023/12/22 07:19:42;;;;;;;5.80;2.10;;;7.80;1.00;;;;;;7379924;19;20010;-69
2023/12/22 07:22:12;;;;;;;9.65;2.45;;;7.70;1.00;;;;;;7379915;19;20010;-69
2023/12/22 07:24:45;;;;;;;5.93;1.85;;;7.70;1.00;;;;;;7379685;19;20036;-70
2023/12/22 07:27:15;;;;;;;9.75;2.53;;;7.70;1.00;;;;;;7379388;19;20010;-70
2023/12/22 07:29:45;;;;;;;9.82;2.30;;;7.70;1.00;;;;;;7380492;19;20081;-69
2023/12/22 07:32:15;;;;;;;8.93;2.60;;;7.70;1.00;;;;;;7378676;19;20007;-69
2023/12/22 07:34:45;;;;;;;6.68;2.60;;;7.70;1.00;;;;;;7380035;19;20013;-71
2023/12/22 07:37:15;;;;;;;9.50;2.50;;;7.70;1.00;;;;;;7378962;19;20475;-70
2023/12/22 07:39:48;;;;;;;7.80;2.50;;;7.70;1.00;;;;;;7378875;19;20085;-70
2023/12/22 07:42:18;;;;;;;8.75;2.90;;;7.70;1.00;;;;;;7379709;19;20022;-69
2023/12/22 07:44:48;;;;;;;12.27;2.92;;;7.70;1.00;;;;;;7380046;19;20435;-70
2023/12/22 07:47:18;;;;;;;9.10;2.13;;;7.70;1.00;;;;;;7378698;19;20007;-70
2023/12/22 07:49:49;;;;;;;8.35;2.30;;;7.70;1.00;;;;;;7380178;19;20010;-70
2023/12/22 07:52:20;;;;;;;10.85;3.03;;;7.70;1.00;;;;;;7379624;19;20015;-69
2023/12/22 07:54:52;;;;;;;6.88;2.38;;;7.70;1.00;;;;;;7378220;19;20037;-70
2023/12/22 07:57:23;;;;;;;8.73;1.90;;;7.80;1.00;;;;;;7378166;19;20027;-69
2023/12/22 07:59:53;;;;;;;8.73;2.38;;;7.70;1.00;;;;;;7378012;19;20031;-69
2023/12/22 08:02:23;;;;;;;9.98;1.98;;;7.70;1.00;;;;;;7378848;19;20009;-68
2023/12/22 08:04:53;;;;;;;15.82;5.93;;;7.60;1.00;;;;;;7379593;19;20010;-69
2023/12/22 08:07:23;;;;;;;8.57;2.63;;;7.60;1.00;;;;;;7378601;19;20407;-70
2023/12/22 08:09:55;;;;;;;9.30;2.60;;;7.40;1.00;;;;;;7379262;19;20006;-71
2023/12/22 08:12:26;;;;;;;8.52;2.45;;;7.20;1.20;;;;;;7379059;19;20018;-71
2023/12/22 08:14:56;;;;;;;13.82;3.00;;;7.00;30.50;;;;;;7379805;19;20033;-70
2023/12/22 08:17:26;;;;;;;11.50;3.15;;;6.90;64.70;;;;;;7377466;19;21076;-70
2023/12/22 08:19:56;;;;;;;13.02;3.00;;;6.80;99.90;;;;;;7378543;19;20021;-69
2023/12/22 08:22:39;;;;;;;8.48;2.95;;;6.80;99.90;;;;;;7373193;19;20014;-71
2023/12/22 08:25:19;;;;;;;12.98;3.53;;;6.80;99.90;;;;;;7367354;19;20025;-70
2023/12/22 08:27:51;;;;;;;18.42;3.58;;;6.80;99.90;;;;;;7368192;19;20027;-70
2023/12/22 08:30:22;;;;;;;11.40;2.90;;;6.80;99.90;;;;;;7366426;19;20557;-70
2023/12/22 08:32:53;;;;;;;11.00;4.18;;;6.80;99.90;;;;;;7374323;19;20039;-73
2023/12/22 08:35:25;;;;;;;17.75;3.85;;;6.80;99.90;;;;;;7369304;19;20021;-70
2023/12/22 08:37:56;;;;;;;8.93;2.70;;;6.80;99.90;;;;;;7367196;19;20459;-72
2023/12/22 08:40:31;;;;;;;8.88;3.17;;;6.80;99.90;;;;;;7367175;19;20031;-71
2023/12/22 08:43:02;;;;;;;9.98;3.20;;;6.70;99.90;;;;;;7347180;19;20481;-71
2023/12/22 08:45:33;;;;;;;17.27;3.40;;;6.80;99.90;;;;;;7358620;19;20015;-70
2023/12/22 08:48:07;;;;;;;16.85;4.00;;;6.70;99.90;;;;;;7369823;19;20010;-70
2023/12/22 08:50:38;;;;;;;18.92;4.38;;;6.80;99.90;;;;;;7367870;19;20018;-72
2023/12/22 08:53:09;;;;;;;13.10;4.65;;;6.70;99.90;;;;;;7366220;19;20018;-72
2023/12/22 08:55:43;;;;;;;18.88;3.67;;;6.80;99.90;;;;;;7362049;19;20010;-72
2023/12/22 08:58:14;;;;;;;15.50;3.78;;;6.80;99.90;;;;;;7357502;19;20015;-71
2023/12/22 09:00:45;;;;;;;15.85;4.45;;;6.80;99.90;;;;;;7371483;19;20375;-72
2023/12/22 09:03:17;;;;;;;18.73;4.53;;;6.90;99.90;;;;;;7373010;19;20074;-71
2023/12/22 09:05:48;;;;;;;16.45;4.35;;;6.90;99.90;;;;;;7362594;19;20398;-71
2023/12/22 09:08:19;;;;;;;16.88;4.57;;;6.90;99.90;;;;;;7368133;19;20019;-71
2023/12/22 09:10:53;;;;;;;14.13;4.10;;;7.00;99.90;;;;;;7370020;19;20494;-71
2023/12/22 09:13:24;;;;;;;16.23;3.67;;;7.20;59.80;;;;;;7368789;19;20039;-71
2023/12/22 09:15:55;;;;;;;16.10;4.68;;;7.20;31.90;;;;;;7368192;19;20006;-71
2023/12/22 09:18:27;;;;;;;17.40;4.45;;;7.30;27.70;;;;;;7359495;19;20373;-72
2023/12/22 09:20:57;;;;;;;16.15;4.40;;;7.30;22.80;;;;;;7374616;19;20007;-71
2023/12/22 09:23:27;;;;;;;15.60;3.53;;;7.40;1.00;;;;;;7375826;19;20010;-70
2023/12/22 09:26:00;;;;;;;15.23;4.18;;;7.50;1.00;;;;;;7374567;19;20468;-71
2023/12/22 09:28:30;;;;;;;12.75;3.50;;;7.50;1.00;;;;;;7376002;19;20017;-69
2023/12/22 09:31:02;;;;;;;19.75;4.25;;;7.50;1.00;;;;;;7375461;19;20375;-69
2023/12/22 09:33:32;;;;;;;14.60;3.97;;;7.50;1.00;;;;;;7376334;19;20108;-70
2023/12/22 09:36:02;;;;;;;18.67;4.03;;;7.50;1.00;;;;;;7375849;19;20486;-71
2023/12/22 09:38:32;;;;;;;20.33;4.00;;;7.60;1.00;;;;;;7375616;19;20452;-69
2023/12/22 09:41:05;;;;;;;13.85;3.75;;;7.60;1.00;;;;;;7374579;19;20034;-69
2023/12/22 09:43:38;;;;;;;13.85;3.40;;;7.50;1.00;;;;;;7376114;19;20352;-69
2023/12/22 09:46:09;;;;;;;16.35;4.10;;;7.70;1.00;;;;;;7374681;19;20049;-70
2023/12/22 09:48:42;;;;;;;13.20;4.40;;;7.70;1.00;;;;;;7376787;19;20498;-70
2023/12/22 09:51:14;;;;;;;22.48;4.70;;;7.70;1.00;;;;;;7375994;19;20010;-69
2023/12/22 09:53:46;;;;;;;13.45;4.00;;;7.70;1.00;;;;;;7376882;19;20025;-73
2023/12/22 09:56:20;;;;;;;12.02;3.30;;;7.70;1.00;;;;;;7375002;19;20019;-69
2023/12/22 09:58:53;;;;;;;18.38;4.57;;;7.80;1.00;;;;;;7375259;19;20006;-70
2023/12/22 10:01:24;;;;;;;17.58;4.13;;;7.80;1.00;;;;;;7372444;19;20072;-69
2023/12/22 10:03:55;;;;;;;14.05;4.13;;;7.90;1.00;;;;;;7373756;19;20358;-70
2023/12/22 10:06:25;;;;;;;18.75;3.72;;;7.90;1.00;;;;;;7375912;19;20022;-71
2023/12/22 10:08:57;;;;;;;17.63;4.38;;;7.90;1.00;;;;;;7374452;19;20043;-71
2023/12/22 10:11:31;;;;;;;20.77;3.70;;;8.00;1.00;;;;;;7370113;19;20410;-72
2023/12/22 10:14:02;;;;;;;;;;;8.00;1.00;;;;;;7375564;19;20026;-70
2023/12/22 10:16:32;;;;;;;16.95;3.90;;;8.00;1.00;;;;;;7375452;19;20247;-70
2023/12/22 10:19:03;;;;;;;14.98;4.15;;;8.00;1.00;;;;;;7374691;19;20010;-72
2023/12/22 10:21:33;;;;;;;14.82;3.50;;;8.10;1.00;;;;;;7374755;19;20379;-70
2023/12/22 10:24:05;;;;;;;17.60;3.47;;;8.10;1.00;;;;;;7379815;19;20010;-69
2023/12/22 10:26:38;;;;;;;17.70;4.45;;;8.10;1.00;;;;;;7380235;19;20006;-71
2023/12/22 10:29:08;;;;;;;19.55;3.83;;;8.10;1.00;;;;;;7379831;19;20070;-70
2023/12/22 10:31:42;;;;;;;17.85;4.30;;;8.20;1.00;;;;;;7380395;19;20074;-71
2023/12/22 10:34:13;;;;;;;17.27;3.78;;;8.20;1.00;;;;;;7380385;19;20030;-69
2023/12/22 10:36:43;;;;;;;14.23;3.22;;;8.20;1.00;;;;;;7380823;19;20463;-70
2023/12/22 10:39:13;;;;;;;22.52;4.22;;;8.20;1.00;;;;;;7379203;19;20456;-70
2023/12/22 10:41:46;;;;;;;17.05;4.32;;;8.20;1.00;;;;;;7380287;19;20050;-71
2023/12/22 10:44:17;;;;;;;15.15;3.65;;;8.20;1.00;;;;;;7379566;19;20018;-70
2023/12/22 10:46:47;;;;;;;15.02;3.17;;;8.30;1.00;;;;;;7381019;19;20081;-71
2023/12/22 10:49:17;;;;;;;17.20;4.20;;;8.30;1.00;;;;;;7378255;19;20002;-70
2023/12/22 10:51:47;;;;;;;13.65;3.35;;;8.30;1.00;;;;;;7379438;19;20029;-70
2023/12/22 10:54:17;;;;;;;9.45;3.13;;;8.30;1.00;;;;;;7378624;19;20057;-70
2023/12/22 10:56:50;;;;;;;12.25;3.05;;;8.40;1.00;;;;;;7379144;19;20034;-70
2023/12/22 10:59:21;;;;;;;7.85;2.15;;;8.40;1.00;;;;;;7377183;19;20467;-71
2023/12/22 11:01:54;;;;;;;12.90;2.72;;;8.30;1.00;;;;;;7379358;19;20006;-72
2023/12/22 11:04:28;;;;;;;11.43;3.28;;;8.40;1.00;;;;;;7378012;19;20037;-71
2023/12/22 11:07:00;;;;;;;9.10;2.10;;;8.40;1.00;;;;;;7379412;19;20022;-70
2023/12/22 11:09:34;;;;;;;10.82;2.65;;;8.40;1.00;;;;;;7383089;19;20010;-70
2023/12/22 11:12:10;;;;;;;9.55;2.63;;;8.40;1.00;;;;;;7378872;19;20006;-71
2023/12/22 11:14:41;;;;;;;7.07;2.35;;;8.30;1.00;;;;;;7377377;19;20013;-72
2023/12/22 11:17:13;;;;;;;13.27;2.40;;;8.40;1.00;;;;;;7374573;19;20014;-70
2023/12/22 11:19:45;;;;;;;8.30;2.22;;;8.40;1.00;;;;;;7377240;19;20041;-71
2023/12/22 11:22:17;;;;;;;7.38;2.03;;;8.30;1.00;;;;;;7377146;19;20011;-70
2023/12/22 11:24:50;;;;;;;9.05;2.65;;;8.40;1.00;;;;;;7377150;19;19998;-71
2023/12/22 11:27:23;;;;;;;5.05;1.80;;;8.30;1.00;;;;;;7376237;19;20494;-71
2023/12/22 11:29:53;;;;;;;7.68;1.80;;;8.30;1.00;;;;;;7377614;19;20089;-71
2023/12/22 11:32:23;;;;;;;3.63;1.35;;;8.30;1.00;;;;;;7377626;19;20021;-71
2023/12/22 11:34:56;;;;;;;5.45;1.98;;;8.30;1.00;;;;;;7377472;19;20007;-71
2023/12/22 11:37:26;;;;;;;8.32;2.15;;;8.40;1.00;;;;;;7377244;19;20392;-71
2023/12/22 11:39:56;;;;;;;3.60;1.20;;;8.40;1.00;;;;;;7378687;19;20466;-72
2023/12/22 11:42:33;;;;;;;7.05;1.50;;;8.40;1.00;;;;;;7375153;19;20027;-70
2023/12/22 11:45:03;;;;;;;5.57;1.40;;;8.40;1.00;;;;;;7374563;19;20200;-71
2023/12/22 11:47:34;;;;;;;4.75;1.40;;;8.40;1.00;;;;;;7375329;19;20014;-71
2023/12/22 11:50:04;;;;;;;5.03;1.58;;;8.40;1.00;;;;;;7375379;19;20122;-71
2023/12/22 11:52:35;;;;;;;4.28;1.40;;;8.40;1.00;;;;;;7378115;19;20010;-70
2023/12/22 11:55:09;;;;;;;3.50;1.45;;;8.40;1.00;;;;;;7377164;19;20428;-70
2023/12/22 11:57:41;;;;;;;4.45;1.50;;;8.40;1.00;;;;;;7375118;19;20135;-71
2023/12/22 12:00:27;;;;;;;3.72;1.73;;;8.30;1.00;;;;;;7373242;19;20013;-72
2023/12/22 12:02:58;;;;;;;2.83;1.33;;;8.20;1.00;;;;;;7377397;19;20012;-70
2023/12/22 12:05:28;;;;;;;2.97;1.10;;;8.20;1.00;;;;;;7376006;19;20010;-70
2023/12/22 12:08:09;;;;;;;4.63;1.10;;;8.20;1.00;;;;;;7374258;19;20010;-72
2023/12/22 12:10:54;;;;;;;4.35;1.20;;;8.20;1.00;;;;;;7379246;19;20010;-71
2023/12/22 12:13:31;;;;;;;2.92;1.30;;;8.20;1.00;;;;;;6867143;19;2004032;-71
2023/12/22 12:16:02;;;;;;;5.35;1.52;;;8.20;1.00;;;;;;7375394;19;20027;-70
2023/12/22 12:18:34;;;;;;;5.50;1.08;;;8.30;1.00;;;;;;7375537;19;20030;-70
2023/12/22 12:21:04;;;;;;;3.78;1.65;;;8.20;1.00;;;;;;7372581;19;20100;-69
2023/12/22 12:23:34;;;;;;;3.70;1.20;;;8.20;1.00;;;;;;7373258;19;20077;-69
2023/12/22 12:26:05;;;;;;;3.20;1.00;;;8.20;1.00;;;;;;7373740;19;20025;-70
2023/12/22 12:28:38;;;;;;;3.42;0.90;;;8.20;1.00;;;;;;7373463;19;20017;-71
2023/12/22 12:31:10;;;;;;;3.15;1.00;;;8.20;1.00;;;;;;7371268;19;20014;-71
2023/12/22 12:33:42;;;;;;;3.78;1.05;;;8.20;1.00;;;;;;7374630;19;20014;-70
2023/12/22 12:36:13;;;;;;;4.22;1.15;;;8.30;1.00;;;;;;7374802;19;20018;-72
2023/12/22 12:38:51;;;;;;;4.15;1.23;;;8.30;1.00;;;;;;7374290;19;20007;-69
2023/12/22 12:41:30;;;;;;;3.10;0.85;;;8.30;1.00;;;;;;7376837;19;20393;-70
2023/12/22 12:44:06;;;;;;;2.75;0.68;;;8.30;1.00;;;;;;7373178;19;20011;-70
2023/12/22 12:46:37;;;;;;;2.50;0.90;;;8.30;1.00;;;;;;7373757;19;20003;-70
2023/12/22 12:49:08;;;;;;;2.53;0.60;;;8.30;1.00;;;;;;7377481;19;20102;-69
2023/12/22 12:51:40;;;;;;;1.60;0.90;;;8.40;1.00;;;;;;7378552;19;20014;-72
2023/12/22 12:54:11;;;;;;;2.33;0.68;;;8.50;1.00;;;;;;7374119;19;20019;-71
2023/12/22 12:56:42;;;;;;;1.88;0.85;;;8.50;1.00;;;;;;7375379;19;20023;-69
2023/12/22 12:59:16;;;;;;;1.02;0.77;;;8.60;1.00;;;;;;7376952;19;20087;-70
2023/12/22 13:01:48;;;;;;;1.88;0.60;;;8.70;1.00;;;;;;7369078;19;20022;-71
2023/12/22 13:04:18;;;;;;;0.75;0.40;;;8.80;1.00;;;;;;7375395;19;20014;-70
2023/12/22 13:06:49;;;;;;;3.40;0.70;;;8.90;1.00;;;;;;7374743;19;20018;-70
2023/12/22 13:09:20;;;;;;;0.80;0.50;;;8.90;1.00;;;;;;7375106;19;20022;-71
2023/12/22 13:11:50;;;;;;;1.42;0.57;;;8.90;1.00;;;;;;7374925;19;20007;-70
2023/12/22 13:14:29;;;;;;;0.93;0.45;;;9.00;1.00;;;;;;7375774;19;20022;-70
2023/12/22 13:17:00;;;;;;;1.02;0.47;;;9.00;1.00;;;;;;7376227;19;20017;-70
2023/12/22 13:19:31;;;;;;;0.60;0.40;;;9.00;1.00;;;;;;7362257;19;20015;-72
2023/12/22 13:22:01;;;;;;;1.15;0.50;;;9.00;1.00;;;;;;7367852;19;20085;-71
2023/12/22 13:24:32;;;;;;;1.67;0.50;;;9.00;1.00;;;;;;7365293;19;20518;-71